Time;durP1;ratioP1;P1;durP2;ratioP2;P2;SDS_P1;SDS_P2;PMS_P1;PMS_P2;Temp;Humidity;BMP_temperature;BMP_pressure;BME280_temperature;BME280_humidity;BME280_pressure;Samples;Min_cycle;Max_cycle;Signal;HPM_P1;HPM_P2
2024/03/19 00:00:35;;;;;;;23.20;13.32;;;;;;;6.55;100.00;69117.75;5090198;28;20403;-49
2024/03/19 00:03:02;;;;;;;22.70;12.73;;;;;;;6.53;100.00;69121.19;5086839;28;20092;-47
2024/03/19 00:05:29;;;;;;;19.77;11.95;;;;;;;6.50;100.00;69117.69;5087962;28;20044;-48
2024/03/19 00:07:58;;;;;;;21.45;12.70;;;;;;;6.48;100.00;69110.19;5090440;28;20055;-48
2024/03/19 00:10:25;;;;;;;20.98;12.07;;;;;;;6.48;100.00;69112.78;5073418;28;20048;-48
2024/03/19 00:12:52;;;;;;;21.80;12.75;;;;;;;6.46;100.00;69109.88;5090210;28;20060;-49
2024/03/19 00:15:20;;;;;;;20.58;12.02;;;;;;;6.44;100.00;69105.53;5086993;28;20048;-50
2024/03/19 00:17:47;;;;;;;23.48;13.02;;;;;;;6.43;100.00;69104.34;5087542;28;20054;-49
2024/03/19 00:20:14;;;;;;;19.50;12.00;;;;;;;6.43;100.00;69104.34;5090402;28;20072;-49
2024/03/19 00:22:41;;;;;;;25.17;12.93;;;;;;;6.40;100.00;69108.66;5090503;28;20086;-51
2024/03/19 00:25:09;;;;;;;23.95;12.98;;;;;;;6.40;100.00;69101.44;5087881;28;20058;-51
2024/03/19 00:27:36;;;;;;;24.75;13.52;;;;;;;6.40;100.00;69100.88;5087280;28;20804;-48
2024/03/19 00:30:04;;;;;;;22.08;12.30;;;;;;;6.40;100.00;69098.28;5072185;28;20060;-48
2024/03/19 00:32:34;;;;;;;20.02;12.13;;;;;;;6.36;100.00;69099.38;5070648;28;20407;-49
2024/03/19 00:35:01;;;;;;;19.33;12.40;;;;;;;6.36;100.00;69096.78;5087961;28;20051;-49
2024/03/19 00:37:28;;;;;;;20.55;13.15;;;;;;;6.40;100.00;69100.88;5090466;28;20513;-47
2024/03/19 00:39:55;;;;;;;23.30;13.02;;;;;;;6.39;100.00;69100.31;5090079;28;20487;-48
2024/03/19 00:42:25;;;;;;;24.27;13.32;;;;;;;6.38;100.00;69098.53;5089922;28;20043;-48
2024/03/19 00:44:54;;;;;;;22.58;13.20;;;;;;;6.36;100.00;69096.78;5086441;28;20048;-48
2024/03/19 00:47:22;;;;;;;23.90;13.60;;;;;;;6.37;100.00;69094.81;5088309;28;20056;-49
2024/03/19 00:49:51;;;;;;;25.13;13.05;;;;;;;6.36;100.00;69093.63;5073050;28;20048;-47
2024/03/19 00:52:18;;;;;;;25.77;12.85;;;;;;;6.37;100.00;69099.97;5090167;28;20044;-49
2024/03/19 00:54:45;;;;;;;26.42;13.45;;;;;;;6.37;100.00;69097.97;5090066;28;20062;-48
2024/03/19 00:57:12;;;;;;;24.58;12.88;;;;;;;6.36;100.00;69101.41;5092919;28;20106;-47
2024/03/19 00:59:41;;;;;;;23.40;13.27;;;;;;;6.39;100.00;69102.28;5093642;28;20040;-49
2024/03/19 01:02:10;;;;;;;22.25;13.05;;;;;;;6.40;100.00;69103.47;5093984;28;20364;-47
2024/03/19 01:04:37;;;;;;;21.80;12.77;;;;;;;6.42;100.00;69103.19;5093545;28;20134;-48
2024/03/19 01:07:06;;;;;;;21.17;12.20;;;;;;;6.41;100.00;69105.22;5076646;28;20142;-47
2024/03/19 01:09:33;;;;;;;20.35;12.23;;;;;;;6.44;100.00;69108.13;5093781;28;20119;-47
2024/03/19 01:12:03;;;;;;;21.65;12.35;;;;;;;6.46;100.00;69109.88;5093749;28;20521;-45
2024/03/19 01:14:30;;;;;;;21.52;12.38;;;;;;;6.46;100.00;69110.44;5093640;28;20048;-48
2024/03/19 01:16:59;;;;;;;19.33;12.20;;;;;;;6.47;100.00;69109.00;5090745;28;20051;-49
2024/03/19 01:19:26;;;;;;;19.52;11.77;;;;;;;6.47;100.00;69108.44;5089856;28;20086;-47
2024/03/19 01:21:53;;;;;;;19.70;11.98;;;;;;;6.48;100.00;69109.59;5093047;28;20527;-48
2024/03/19 01:24:20;;;;;;;21.45;12.25;;;;;;;6.48;100.00;69114.78;5076426;28;20502;-47
2024/03/19 01:26:47;;;;;;;18.85;11.65;;;;;;;6.50;100.00;69114.50;5093521;28;20425;-49
2024/03/19 01:29:17;;;;;;;20.30;11.85;;;;;;;6.52;100.00;69114.25;5076395;28;20058;-49
2024/03/19 01:31:44;;;;;;;19.45;11.00;;;;;;;6.53;100.00;69113.41;5093147;28;20046;-49
2024/03/19 01:34:12;;;;;;;19.60;11.35;;;;;;;6.55;100.00;69115.16;5092954;28;20075;-46
2024/03/19 01:36:39;;;;;;;18.50;11.00;;;;;;;6.57;100.00;69120.66;5092773;28;20503;-47
2024/03/19 01:39:08;;;;;;;19.33;11.40;;;;;;;6.57;100.00;69123.25;5092809;28;20395;-46
2024/03/19 01:41:35;;;;;;;21.38;11.13;;;;;;;6.57;100.00;69120.66;5091602;28;20032;-46
2024/03/19 01:44:02;;;;;;;21.83;11.93;;;;;;;6.57;100.00;69123.25;5089355;28;20051;-47
2024/03/19 01:46:30;;;;;;;23.30;12.38;;;;;;;6.58;100.00;69127.00;5092176;28;20063;-47
2024/03/19 01:48:59;;;;;;;19.40;11.52;;;;;;;6.60;100.00;69120.97;5092517;28;20044;-46
2024/03/19 01:51:27;;;;;;;20.40;11.90;;;;;;;6.61;100.00;69124.72;5092784;28;20036;-47
2024/03/19 01:53:58;;;;;;;24.60;12.25;;;;;;;6.63;100.00;69127.06;5091412;28;20048;-46
2024/03/19 01:56:25;;;;;;;20.10;11.52;;;;;;;6.66;100.00;69127.94;5089783;28;20040;-46
2024/03/19 01:58:53;;;;;;;20.25;11.48;;;;;;;6.68;100.00;69132.88;5091624;28;20043;-47
2024/03/19 02:01:21;;;;;;;19.48;10.98;;;;;;;6.71;100.00;69133.75;5092512;28;20503;-47
2024/03/19 02:03:49;;;;;;;21.15;12.63;;;;;;;6.72;100.00;69139.53;5092559;28;20088;-47
2024/03/19 02:06:17;;;;;;;23.90;12.63;;;;;;;6.72;100.00;69137.53;5075814;28;20180;-46
2024/03/19 02:09:03;;;;;;;23.05;13.75;;;;;;;6.73;100.00;69138.09;5091887;28;20073;-47
2024/03/19 02:11:31;;;;;;;21.42;11.82;;;;;;;6.73;100.00;69138.66;5072808;28;20133;-47
2024/03/19 02:13:58;;;;;;;22.30;12.45;;;;;;;6.75;100.00;69140.44;5088745;28;20055;-46
2024/03/19 02:16:26;;;;;;;21.85;12.50;;;;;;;6.76;100.00;69144.19;5092726;28;20534;-46
2024/03/19 02:18:57;;;;;;;22.30;12.93;;;;;;;6.76;100.00;69139.59;5092227;28;20044;-47
2024/03/19 02:21:25;;;;;;;21.15;12.98;;;;;;;6.76;100.00;69147.38;5092305;28;20056;-46
2024/03/19 02:23:56;;;;;;;19.92;12.18;;;;;;;6.76;100.00;69146.78;5075128;28;20040;-46
2024/03/19 02:26:24;;;;;;;20.65;11.93;;;;;;;6.75;100.00;69143.59;5092190;28;20541;-46
2024/03/19 02:28:52;;;;;;;23.23;13.02;;;;;;;6.75;100.00;69140.44;5088986;28;20104;-48
2024/03/19 02:31:19;;;;;;;23.90;11.75;;;;;;;6.76;100.00;69141.59;5089793;28;20418;-49
2024/03/19 02:33:46;;;;;;;19.80;12.13;;;;;;;6.75;100.00;69143.59;5091687;28;20048;-49
2024/03/19 02:36:13;;;;;;;21.80;13.07;;;;;;;6.77;100.00;69140.72;5091788;28;20059;-51
2024/03/19 02:38:40;;;;;;;23.73;12.63;;;;;;;6.80;100.00;69148.84;5089381;28;20495;-50
2024/03/19 02:41:09;;;;;;;21.90;12.65;;;;;;;6.80;100.00;69143.06;5088698;28;20549;-48
2024/03/19 02:43:37;;;;;;;23.70;12.77;;;;;;;6.81;100.00;69152.59;5074613;28;20047;-50
2024/03/19 02:46:04;;;;;;;21.77;13.02;;;;;;;6.82;100.00;69145.97;5091849;28;20044;-48
2024/03/19 02:48:31;;;;;;;24.02;13.57;;;;;;;6.85;100.00;69157.25;5091458;28;20083;-48
2024/03/19 02:50:59;;;;;;;25.55;15.00;;;;;;;6.87;100.00;69153.81;5091825;28;20495;-51
2024/03/19 02:53:27;;;;;;;27.48;14.70;;;;;;;6.90;100.00;69157.31;5088508;28;20089;-51
2024/03/19 02:55:55;;;;;;;26.23;14.35;;;;;;;6.91;100.00;69158.47;5087955;28;20054;-49
2024/03/19 02:58:24;;;;;;;24.17;13.90;;;;;;;6.93;100.00;69160.78;5089181;28;20364;-49
2024/03/19 03:00:52;;;;;;;24.88;12.70;;;;;;;6.95;100.00;69163.13;5088057;28;20040;-50
2024/03/19 03:03:22;;;;;;;23.20;12.63;;;;;;;6.98;100.00;69166.03;5088838;28;20040;-50
2024/03/19 03:05:49;;;;;;;22.98;11.57;;;;;;;7.01;100.00;69169.50;5089853;28;20098;-50
2024/03/19 03:08:16;;;;;;;25.02;12.60;;;;;;;7.04;100.00;69170.41;5090928;28;20469;-49
2024/03/19 03:10:43;;;;;;;20.48;12.30;;;;;;;7.05;100.00;69174.19;5087872;28;20051;-49
2024/03/19 03:13:10;;;;;;;19.67;11.55;;;;;;;7.08;100.00;69180.25;5088133;28;20048;-50
2024/03/19 03:15:39;;;;;;;21.05;11.15;;;;;;;7.10;100.00;69180.00;5088062;28;20044;-48
2024/03/19 03:18:06;;;;;;;23.48;12.02;;;;;;;7.11;100.00;69181.16;5073635;28;20051;-48
2024/03/19 03:20:33;;;;;;;23.55;11.75;;;;;;;7.13;100.00;69188.69;5091126;28;20043;-48
2024/03/19 03:23:01;;;;;;;22.48;12.52;;;;;;;7.16;100.00;69186.97;5074169;28;20079;-49
2024/03/19 03:25:29;;;;;;;25.13;12.15;;;;;;;7.19;100.00;69189.91;5091179;28;20040;-48
2024/03/19 03:27:59;;;;;;;22.23;12.52;;;;;;;7.21;100.00;69192.81;5074380;28;20093;-50
2024/03/19 03:30:27;;;;;;;21.75;11.60;;;;;;;7.24;100.00;69190.50;5091138;28;20066;-49
2024/03/19 03:32:56;;;;;;;22.20;12.45;;;;;;;7.26;100.00;69198.59;5087722;28;20051;-51
2024/03/19 03:35:23;;;;;;;22.63;12.23;;;;;;;7.29;100.00;69198.94;5086913;28;20062;-50
2024/03/19 03:37:50;;;;;;;22.27;12.40;;;;;;;7.31;100.00;69205.84;5087360;28;20120;-50
2024/03/19 03:40:17;;;;;;;22.60;13.02;;;;;;;7.32;100.00;69204.44;5088781;28;20040;-49
2024/03/19 03:42:45;;;;;;;22.83;12.48;;;;;;;7.35;100.00;69211.13;5088718;28;20098;-49
2024/03/19 03:45:13;;;;;;;19.60;11.13;;;;;;;7.36;100.00;69212.28;5086980;28;20047;-49
2024/03/19 03:47:40;;;;;;;22.42;12.65;;;;;;;7.36;100.00;69209.09;5089880;28;20367;-48
2024/03/19 03:50:11;;;;;;;19.65;11.55;;;;;;;7.40;100.00;69216.94;5086061;28;20048;-52
2024/03/19 03:52:39;;;;;;;20.90;12.10;;;;;;;7.41;100.00;69214.91;5087579;28;20048;-49
2024/03/19 03:55:09;;;;;;;20.88;11.48;;;;;;;7.43;100.00;69219.81;5089430;28;20044;-48
2024/03/19 03:57:37;;;;;;;23.10;11.95;;;;;;;7.45;100.00;69216.97;5088200;28;20048;-48
2024/03/19 04:00:10;;;;;;;21.23;12.55;;;;;;;7.46;100.00;69220.75;5086761;28;20052;-52
2024/03/19 04:02:37;;;;;;;20.42;10.57;;;;;;;7.47;100.00;69218.72;5087678;28;20032;-51
2024/03/19 04:05:07;;;;;;;21.45;10.50;;;;;;;7.48;100.00;69223.06;5090469;28;20390;-51
2024/03/19 04:07:36;;;;;;;20.52;11.60;;;;;;;7.50;100.00;69224.81;5090585;28;20093;-47
2024/03/19 04:10:03;;;;;;;22.48;11.85;;;;;;;7.52;100.00;69229.75;5090465;28;20044;-50
2024/03/19 04:12:32;;;;;;;21.38;12.05;;;;;;;7.54;100.00;69230.06;5090453;28;20135;-50
2024/03/19 04:14:59;;;;;;;25.65;12.73;;;;;;;7.55;100.00;69225.44;5090463;28;20051;-51
2024/03/19 04:17:26;;;;;;;23.00;13.23;;;;;;;7.57;100.00;69233.53;5090812;28;20032;-48
2024/03/19 04:19:53;;;;;;;23.13;13.02;;;;;;;7.58;100.00;69234.72;5090278;28;20076;-49
2024/03/19 04:22:20;;;;;;;25.13;13.82;;;;;;;7.61;100.00;69235.03;5090209;28;20044;-50
2024/03/19 04:24:49;;;;;;;25.13;14.70;;;;;;;7.63;100.00;69241.97;5090404;28;20386;-50
2024/03/19 04:27:16;;;;;;;30.42;15.90;;;;;;;7.66;100.00;69242.84;5070360;28;20054;-50
2024/03/19 04:29:43;;;;;;;29.50;14.68;;;;;;;7.68;100.00;69247.78;5069809;28;20051;-48
2024/03/19 04:32:10;;;;;;;28.65;15.75;;;;;;;7.71;100.00;69249.25;5089817;28;20047;-49
2024/03/19 04:34:39;;;;;;;32.42;17.83;;;;;;;7.72;100.00;69250.44;5091417;28;20516;-49
2024/03/19 04:37:06;;;;;;;29.65;16.30;;;;;;;7.75;100.00;69253.34;5072646;28;20056;-50
2024/03/19 04:39:33;;;;;;;30.63;17.25;;;;;;;7.75;100.00;69255.94;5091169;28;20036;-50
2024/03/19 04:42:02;;;;;;;31.13;17.45;;;;;;;7.76;100.00;69255.09;5093066;28;20055;-49
2024/03/19 04:44:31;;;;;;;33.05;18.58;;;;;;;7.80;100.00;69256.56;5091188;28;20521;-49
2024/03/19 04:46:58;;;;;;;37.17;18.70;;;;;;;7.83;100.00;69262.66;5074890;28;20040;-51
2024/03/19 04:49:28;;;;;;;32.72;19.38;;;;;;;7.86;100.00;69268.75;5094106;28;20092;-51
2024/03/19 04:51:56;;;;;;;28.35;16.90;;;;;;;7.88;100.00;69271.09;5094116;28;20529;-48
2024/03/19 04:54:23;;;;;;;29.85;17.85;;;;;;;7.89;100.00;69267.03;5094143;28;20036;-48
2024/03/19 04:56:50;;;;;;;33.28;19.10;;;;;;;7.91;100.00;69271.97;5076824;28;20044;-47
2024/03/19 04:59:18;;;;;;;34.35;19.25;;;;;;;7.93;100.00;69274.31;5093607;28;20077;-46
2024/03/19 05:01:46;;;;;;;33.40;18.50;;;;;;;7.96;100.00;69277.19;5092319;28;20044;-51
2024/03/19 05:04:13;;;;;;;33.75;18.77;;;;;;;7.98;100.00;69282.16;5090280;28;20134;-51
2024/03/19 05:06:40;;;;;;;30.33;17.83;;;;;;;7.99;100.00;69282.72;5089292;28;20051;-50
2024/03/19 05:09:08;;;;;;;31.33;17.65;;;;;;;7.99;100.00;69282.72;5090682;28;20402;-50
2024/03/19 05:11:35;;;;;;;32.22;18.60;;;;;;;7.97;100.00;69275.19;5093800;28;20471;-47
2024/03/19 05:14:03;;;;;;;31.30;18.30;;;;;;;7.95;100.00;69276.63;5093624;28;20036;-49
2024/03/19 05:16:31;;;;;;;32.78;17.13;;;;;;;7.97;100.00;69273.19;5093631;28;20514;-50
2024/03/19 05:18:58;;;;;;;36.28;19.30;;;;;;;7.98;100.00;69276.38;5093436;28;20054;-53
2024/03/19 05:21:26;;;;;;;31.98;18.38;;;;;;;7.98;100.00;69276.38;5089445;28;20383;-52
2024/03/19 05:23:53;;;;;;;32.53;18.42;;;;;;;7.99;100.00;69280.13;5090644;28;20043;-48
2024/03/19 05:26:20;;;;;;;32.30;18.48;;;;;;;7.98;100.00;69279.53;5090995;28;20495;-54
2024/03/19 05:28:50;;;;;;;28.40;16.85;;;;;;;7.98;100.00;69276.94;5076145;28;20044;-49
2024/03/19 05:31:22;;;;;;;30.80;18.00;;;;;;;7.99;100.00;69283.31;5093102;28;20132;-49
2024/03/19 05:33:51;;;;;;;29.30;17.15;;;;;;;7.98;100.00;69278.97;5093002;28;20053;-49
2024/03/19 05:36:19;;;;;;;30.38;17.55;;;;;;;7.99;100.00;69285.31;5075758;28;20051;-52
2024/03/19 05:38:46;;;;;;;28.85;17.13;;;;;;;8.00;100.00;69283.88;5072690;28;20075;-50
2024/03/19 05:41:14;;;;;;;31.15;18.13;;;;;;;7.99;100.00;69282.72;5072697;28;20101;-51
2024/03/19 05:43:42;;;;;;;34.42;17.23;;;;;;;8.01;100.00;69285.06;5088562;28;20044;-49
2024/03/19 05:46:10;;;;;;;31.33;17.50;;;;;;;8.01;100.00;69285.06;5092028;28;20081;-48
2024/03/19 05:48:38;;;;;;;33.20;18.67;;;;;;;8.05;100.00;69289.72;5092318;28;20052;-51
2024/03/19 05:51:08;;;;;;;29.67;18.40;;;;;;;8.06;100.00;69288.28;5088272;28;20132;-48
2024/03/19 05:53:36;;;;;;;31.75;18.10;;;;;;;8.07;100.00;69286.84;5073393;28;20044;-50
2024/03/19 05:56:04;;;;;;;32.70;18.52;;;;;;;8.07;100.00;69292.63;5092840;28;20074;-49
2024/03/19 05:58:31;;;;;;;35.67;20.70;;;;;;;8.07;100.00;69287.44;5092902;28;20048;-49
2024/03/19 06:00:59;;;;;;;35.33;20.38;;;;;;;8.06;100.00;69291.47;5092795;28;20591;-48
2024/03/19 06:03:27;;;;;;;35.72;19.67;;;;;;;8.10;100.00;69292.94;5092695;28;20069;-48
2024/03/19 06:05:58;;;;;;;34.35;19.88;;;;;;;8.11;100.00;69297.28;5091309;28;20054;-52
2024/03/19 06:08:27;;;;;;;37.38;19.23;;;;;;;8.12;100.00;69295.25;5089808;28;20387;-48
2024/03/19 06:10:54;;;;;;;37.80;20.83;;;;;;;8.15;100.00;69296.16;5091146;28;20048;-50
2024/03/19 06:13:21;;;;;;;32.55;18.75;;;;;;;8.18;100.00;69301.66;5092121;28;20503;-51
2024/03/19 06:15:48;;;;;;;33.42;19.13;;;;;;;8.20;100.00;69298.81;5092375;28;20047;-51
2024/03/19 06:18:15;;;;;;;35.13;20.20;;;;;;;8.22;100.00;69309.53;5092612;28;20430;-50
2024/03/19 06:20:43;;;;;;;34.28;19.20;;;;;;;8.25;100.00;69310.41;5092173;28;20100;-51
2024/03/19 06:23:11;;;;;;;34.67;19.73;;;;;;;8.33;100.00;69316.56;5073760;28;20052;-50
2024/03/19 06:25:40;;;;;;;33.13;18.95;;;;;;;8.32;100.00;69318.00;5088394;28;20507;-49
2024/03/19 06:28:08;;;;;;;33.88;19.13;;;;;;;8.34;100.00;69317.72;5091296;28;20064;-50
2024/03/19 06:30:35;;;;;;;34.15;19.90;;;;;;;8.39;100.00;69328.75;5091721;28;20040;-51
2024/03/19 06:33:02;;;;;;;38.47;20.33;;;;;;;8.39;100.00;69328.16;5091816;28;20037;-51
2024/03/19 06:35:31;;;;;;;33.42;18.73;;;;;;;8.40;100.00;69326.72;5089385;28;20349;-51
2024/03/19 06:37:58;;;;;;;35.90;20.00;;;;;;;8.42;100.00;69332.22;5071309;28;20060;-48
2024/03/19 06:40:25;;;;;;;34.05;20.15;;;;;;;8.45;100.00;69332.56;5089017;28;20044;-48
2024/03/19 06:42:54;;;;;;;41.50;22.55;;;;;;;8.50;100.00;69340.41;5071957;28;20051;-48
2024/03/19 06:45:22;;;;;;;44.53;26.00;;;;;;;8.60;100.00;69349.47;5089456;28;20040;-52
2024/03/19 06:47:50;;;;;;;45.92;26.17;;;;;;;8.63;100.00;69355.56;5091391;28;20052;-49
2024/03/19 06:50:19;;;;;;;38.83;24.23;;;;;;;8.65;100.00;69357.91;5091790;28;20119;-52
2024/03/19 06:52:46;;;;;;;45.67;25.27;;;;;;;8.67;100.00;69354.44;5074720;28;20040;-48
2024/03/19 06:55:15;;;;;;;44.35;23.17;;;;;;;8.70;100.00;69360.53;5091324;28;20581;-50
2024/03/19 06:57:42;;;;;;;42.45;24.85;;;;;;;8.72;100.00;69362.88;5074708;28;20094;-48
2024/03/19 07:00:14;;;;;;;42.90;23.27;;;;;;;8.77;100.00;69371.31;5073209;28;20474;-50
2024/03/19 07:02:42;;;;;;;32.65;20.20;;;;;;;8.78;100.00;69367.84;5088131;28;20056;-51
2024/03/19 07:05:12;;;;;;;33.85;18.35;;;;;;;8.82;100.00;69371.94;5086513;28;20036;-50
2024/03/19 07:07:39;;;;;;;32.83;18.58;;;;;;;8.86;100.00;69381.19;5088382;28;20122;-53
2024/03/19 07:10:10;;;;;;;28.25;16.83;;;;;;;8.91;100.00;69385.00;5091698;28;20044;-53
2024/03/19 07:12:39;;;;;;;31.35;17.95;;;;;;;8.94;100.00;69391.13;5091244;28;20131;-50
2024/03/19 07:15:10;;;;;;;30.00;16.63;;;;;;;9.00;100.00;69394.34;5088659;28;20525;-49
2024/03/19 07:17:41;;;;;;;31.33;18.95;;;;;;;9.03;100.00;69400.44;5088229;28;20048;-52
2024/03/19 07:20:12;;;;;;;34.88;19.00;;;;;;;9.06;100.00;69401.34;5069713;28;20087;-51
2024/03/19 07:22:41;;;;;;;34.13;19.30;;;;;;;9.07;100.00;69400.47;5088127;28;20040;-51
2024/03/19 07:25:10;;;;;;;28.58;18.13;;;;;;;9.13;100.00;69407.47;5091130;28;20043;-50
2024/03/19 07:27:39;;;;;;;30.92;18.45;;;;;;;9.18;100.00;69417.34;5091164;28;20074;-49
2024/03/19 07:30:09;;;;;;;35.42;19.77;;;;;;;9.16;100.00;69412.97;5090989;28;20139;-49
2024/03/19 07:32:36;;;;;;;30.20;19.27;;;;;;;9.22;100.00;69419.41;5090939;28;20036;-48
2024/03/19 07:35:05;;;;;;;31.45;18.02;;;;;;;9.23;100.00;69417.97;5090900;28;20511;-51
2024/03/19 07:37:32;;;;;;;30.40;19.17;;;;;;;9.28;100.00;69427.00;5090770;28;20513;-51
2024/03/19 07:40:00;;;;;;;28.98;17.77;;;;;;;9.35;100.00;69428.78;5090979;28;20047;-51
2024/03/19 07:42:27;;;;;;;30.77;18.48;;;;;;;9.35;100.00;69433.97;5090951;28;20043;-51
2024/03/19 07:44:55;;;;;;;30.58;17.85;;;;;;;9.35;100.00;69431.94;5088126;28;20048;-51
2024/03/19 07:47:22;;;;;;;31.10;18.08;;;;;;;9.39;100.00;69436.59;5087732;28;20491;-52
2024/03/19 07:49:49;;;;;;;27.48;17.85;;;;;;;9.41;100.00;69438.94;5089815;28;20048;-52
2024/03/19 07:52:18;;;;;;;29.90;17.60;;;;;;;9.44;100.00;69441.88;5085986;28;20028;-50
2024/03/19 07:54:45;;;;;;;30.25;18.08;;;;;;;9.48;100.00;69449.13;5087305;28;20044;-50
2024/03/19 07:57:13;;;;;;;29.77;19.02;;;;;;;9.51;100.00;69450.03;5089982;28;20119;-52
2024/03/19 07:59:40;;;;;;;31.65;18.13;;;;;;;9.54;100.00;69452.94;5088200;28;20510;-50
2024/03/19 08:02:08;;;;;;;32.90;18.00;;;;;;;9.56;100.00;69457.91;5087143;28;20052;-53
2024/03/19 08:04:35;;;;;;;29.25;17.77;;;;;;;9.63;100.00;69471.84;5087026;28;20499;-50
2024/03/19 08:07:02;;;;;;;29.70;17.73;;;;;;;9.68;100.00;69468.69;5086430;28;20126;-52
2024/03/19 08:09:32;;;;;;;29.13;17.83;;;;;;;9.72;100.00;69473.34;5071366;28;20515;-51
2024/03/19 08:12:05;;;;;;;30.13;16.73;;;;;;;9.74;100.00;69478.31;5087416;28;20097;-52
2024/03/19 08:14:33;;;;;;;24.40;15.98;;;;;;;9.79;100.00;69484.13;5087328;28;20063;-50
2024/03/19 08:17:02;;;;;;;26.25;15.70;;;;;;;9.81;100.00;69487.03;5090391;28;20058;-49
2024/03/19 08:19:29;;;;;;;29.33;16.85;;;;;;;9.88;100.00;69497.22;5071817;28;20044;-52
2024/03/19 08:21:56;;;;;;;25.10;15.93;;;;;;;9.94;100.00;69501.63;5085401;28;20048;-51
2024/03/19 08:24:23;;;;;;;25.10;16.55;;;;;;;10.03;100.00;69513.56;5089526;28;20166;-49
2024/03/19 08:26:52;;;;;;;26.45;15.88;;;;;;;10.06;100.00;69517.06;5073224;28;20059;-50
2024/03/19 08:29:19;;;;;;;24.23;15.70;;;;;;;10.13;100.00;69525.25;5070106;28;20052;-49
2024/03/19 08:31:47;;;;;;;26.15;15.48;;;;;;;10.18;100.00;69528.44;5086610;28;20047;-50
2024/03/19 08:34:14;;;;;;;28.35;15.55;;;;;;;10.25;100.00;69533.44;5088636;28;20479;-54
2024/03/19 08:36:42;;;;;;;26.40;15.85;;;;;;;10.32;100.00;69547.41;5073440;28;20055;-49
2024/03/19 08:39:10;;;;;;;24.80;14.65;;;;;;;10.40;100.00;69552.97;5090292;28;20036;-51
2024/03/19 08:41:37;;;;;;;26.40;14.95;;;;;;;10.46;100.00;69557.38;5090309;28;20044;-52
2024/03/19 08:44:06;;;;;;;24.60;14.77;;;;;;;10.51;100.00;69568.41;5089084;28;20380;-50
2024/03/19 08:46:33;;;;;;;27.92;14.68;;;;;;;10.61;100.00;69580.09;5087029;28;20455;-51
2024/03/19 08:49:00;;;;;;;25.17;14.32;;;;;;;10.73;100.00;69590.94;5088132;28;20055;-50
2024/03/19 08:51:30;;;;;;;27.38;15.02;;;;;;;10.93;100.00;69613.66;5089933;28;20043;-51
2024/03/19 08:53:57;;;;;;;22.27;14.35;;;;;;;11.12;100.00;69632.09;5087606;28;20822;-48
2024/03/19 08:56:24;;;;;;;21.48;14.05;;;;;;;11.32;100.00;69654.84;5086540;28;20495;-53
2024/03/19 08:58:52;;;;;;;26.45;13.55;;;;;;;11.52;100.00;69677.63;5087266;28;20129;-53
2024/03/19 09:01:21;;;;;;;23.90;13.50;;;;;;;11.76;100.00;69705.06;5088721;28;20058;-51
2024/03/19 09:03:48;;;;;;;23.52;13.02;;;;;;;12.04;100.00;69733.44;5086333;28;20507;-51
2024/03/19 09:06:15;;;;;;;21.30;11.02;;;;;;;12.23;100.00;69758.28;5089066;28;20032;-53
2024/03/19 09:08:42;;;;;;;21.67;11.32;;;;;;;12.41;100.00;69778.16;5086928;28;20058;-52
2024/03/19 09:11:10;;;;;;;20.10;9.52;;;;;;;12.63;100.00;69806.47;5086629;28;20456;-50
2024/03/19 09:13:37;;;;;;;20.30;11.32;;;;;;;12.91;100.00;69838.03;5086351;28;20519;-52
2024/03/19 09:16:06;;;;;;;16.35;8.75;;;;;;;13.11;100.00;69860.81;5085790;28;20433;-52
2024/03/19 09:18:35;;;;;;;15.43;7.95;;;;;;;13.23;100.00;69868.47;5090093;28;20051;-52
2024/03/19 09:21:02;;;;;;;12.73;6.65;;;;;;;13.44;100.00;69892.47;5091980;28;20040;-52
2024/03/19 09:23:29;;;;;;;14.50;7.75;;;;;;;13.64;100.00;69912.66;5090727;28;20048;-52
2024/03/19 09:25:56;;;;;;;14.85;8.00;;;;;;;13.84;100.00;69938.09;5090901;28;20051;-50
2024/03/19 09:28:24;;;;;;;13.13;6.43;;;;;;;14.06;100.00;69970.50;5093320;28;20043;-52
2024/03/19 09:30:51;;;;;;;14.48;6.35;;;;;;;14.25;100.00;69987.53;5093193;28;20040;-50
2024/03/19 09:33:18;;;;;;;12.30;6.15;;;;;;;14.42;100.00;70001.56;5093446;28;20042;-50
2024/03/19 09:35:46;;;;;;;11.95;6.18;;;;;;;14.46;100.00;70008.88;5093007;28;20379;-54
2024/03/19 09:38:15;;;;;;;10.00;5.50;;;;;;;14.53;100.00;70019.13;5092653;28;20785;-53
2024/03/19 09:40:52;;;;;;;10.18;5.32;;;;;;;14.57;100.00;70023.78;5090076;28;20127;-53
2024/03/19 09:43:23;;;;;;;10.32;5.30;;;;;;;14.63;100.00;70030.84;5091834;28;20044;-47
2024/03/19 09:45:50;;;;;;;10.60;5.10;;;;;;;14.62;100.00;70029.06;5092863;28;20063;-49
2024/03/19 09:48:18;;;;;;;10.90;5.25;;;;;;;14.69;100.00;70032.63;5092694;28;20498;-48
2024/03/19 09:50:48;;;;;;;10.93;5.22;;;;;;;14.77;100.00;70046.06;5092997;28;20044;-49
2024/03/19 09:53:18;;;;;;;9.30;4.93;;;;;;;14.75;100.00;70046.34;5074645;28;20089;-51
2024/03/19 09:55:46;;;;;;;10.77;5.40;;;;;;;14.68;100.00;70031.47;5088941;28;20521;-48
2024/03/19 09:58:14;;;;;;;9.35;4.57;;;;;;;14.69;100.00;70037.88;5091780;28;20043;-51
2024/03/19 10:00:45;;;;;;;10.98;4.63;;;;;;;14.66;100.00;70034.34;5075365;28;20028;-47
2024/03/19 10:03:12;;;;;;;9.35;4.63;;;;;;;14.76;100.00;70048.09;5092373;28;20044;-48
2024/03/19 10:05:39;;;;;;;9.98;4.38;;;;;;;14.98;100.00;70073.31;5092181;28;20123;-47
2024/03/19 10:08:12;;;;;;;8.63;4.10;;;;;;;15.21;100.00;70094.41;5091316;28;20059;-49
2024/03/19 10:10:40;;;;;;;9.77;4.30;;;;;;;15.33;100.00;70105.22;5091263;28;20119;-47
2024/03/19 10:13:11;;;;;;;9.20;4.25;;;;;;;15.53;100.00;70130.13;5091136;28;20043;-48
2024/03/19 10:15:39;;;;;;;7.90;3.67;;;;;;;15.74;100.00;70154.13;5091116;28;20112;-47
2024/03/19 10:18:07;;;;;;;9.35;3.35;;;;;;;15.96;100.00;70181.38;5091160;28;20035;-48
2024/03/19 10:20:36;;;;;;;8.18;3.28;;;;;;;16.13;100.00;70198.09;5091249;28;20051;-48
2024/03/19 10:23:05;;;;;;;8.43;2.90;;;;;;;16.30;100.00;70220.66;5089540;28;20052;-50
2024/03/19 10:25:36;;;;;;;6.85;2.80;;;;;;;16.45;100.00;70237.06;5088663;28;20550;-49
2024/03/19 10:28:06;;;;;;;8.23;2.90;;;;;;;16.68;100.00;70261.38;5092022;28;20042;-47
2024/03/19 10:30:33;;;;;;;7.30;2.83;;;;;;;16.90;100.00;70291.88;5091478;28;20048;-47
2024/03/19 10:33:06;;;;;;;7.30;3.05;;;;;;;17.04;100.00;70299.81;5092016;28;20043;-47
2024/03/19 10:35:35;;;;;;;7.05;2.70;;;;;;;17.14;100.00;70313.59;5089074;28;20093;-47
2024/03/19 10:38:03;;;;;;;7.65;3.65;;;;;;;17.10;100.00;70310.94;5088010;28;20085;-50
2024/03/19 10:40:34;;;;;;;7.65;3.78;;;;;;;17.02;100.00;70300.09;5091657;28;20043;-48
2024/03/19 10:43:02;;;;;;;10.85;4.70;;;;;;;17.00;100.00;70297.78;5090723;28;20044;-51
2024/03/19 10:45:30;;;;;;;9.60;4.50;;;;;;;16.82;100.00;70279.84;5088581;28;20141;-49
2024/03/19 10:47:58;;;;;;;11.77;4.55;;;;;;;16.72;100.00;70268.72;5090085;28;20139;-48
2024/03/19 10:50:25;;;;;;;10.50;4.22;;;;;;;16.68;100.00;70261.38;5091645;28;20064;-48
2024/03/19 10:53:00;;;;;;;9.35;4.00;;;;;;;16.75;100.00;70271.66;5074538;28;20066;-49
2024/03/19 10:55:31;;;;;;;10.68;4.45;;;;;;;16.83;100.00;70283.66;5087880;28;20048;-47
2024/03/19 10:58:02;;;;;;;10.07;4.60;;;;;;;16.86;100.00;70283.97;5087804;28;20051;-47
2024/03/19 11:00:30;;;;;;;10.35;4.60;;;;;;;16.64;100.00;70258.75;5089986;28;20048;-49
2024/03/19 11:02:59;;;;;;;9.55;4.13;;;;;;;16.62;100.00;70257.00;5091100;28;20043;-47
2024/03/19 11:05:27;;;;;;;8.93;4.13;;;;;;;16.60;100.00;70254.66;5091028;28;20048;-47
2024/03/19 11:07:56;;;;;;;9.95;4.00;;;;;;;16.59;100.00;70255.53;5087582;28;20051;-48
2024/03/19 11:10:28;;;;;;;10.35;4.28;;;;;;;16.40;100.00;70229.16;5087669;28;20115;-48
2024/03/19 11:12:57;;;;;;;10.50;3.83;;;;;;;16.34;100.00;70222.69;5093168;28;20502;-47
2024/03/19 11:15:26;;;;;;;9.07;3.80;;;;;;;16.43;100.00;70226.81;5090917;28;20058;-46
2024/03/19 11:17:53;;;;;;;9.65;4.10;;;;;;;16.39;100.00;70228.56;5100887;28;20031;-47
2024/03/19 11:20:21;;;;;;;10.90;4.40;;;;;;;16.33;100.00;70223.56;5091309;28;20044;-48